<?xml version="1.0" encoding="UTF-8" standalone="no" ?>
<gpx xmlns="http://www.topografix.com/GPX/1/1" xmlns:xsi="http://www.w3.org/2001/XMLSchema-instance" xsi:schemaLocation="http://www.topografix.com/GPX/1/1 http://www.topografix.com/GPX/1/1/gpx.xsd" version="1.1" creator="VisuGPX - https://www.visugpx.com">
  <metadata>
    <name>Lods - Chateauvieux les Fossés par Vuillafans et retour</name>
  </metadata>
  <trk>
    <name><![CDATA[Randonnée du 15/07/2020 à 14:24]]></name>
    <trkseg>
      <trkpt lat="47.04489" lon="6.24782">
        <ele>385</ele>
        <time>2020-07-16T12:13:48+02:00</time>
      </trkpt>
      <trkpt lat="47.04509" lon="6.247">
        <ele>393</ele>
        <time>2020-07-16T12:13:53+02:00</time>
      </trkpt>
      <trkpt lat="47.0448" lon="6.24649">
        <ele>384</ele>
        <time>2020-07-16T12:13:58+02:00</time>
      </trkpt>
      <trkpt lat="47.045" lon="6.24452">
        <ele>383</ele>
        <time>2020-07-16T12:14:03+02:00</time>
      </trkpt>
      <trkpt lat="47.04486" lon="6.24306">
        <ele>369</ele>
        <time>2020-07-16T12:14:08+02:00</time>
      </trkpt>
      <trkpt lat="47.04497" lon="6.24207">
        <ele>363</ele>
        <time>2020-07-16T12:14:13+02:00</time>
      </trkpt>
      <trkpt lat="47.04538" lon="6.24121">
        <ele>364</ele>
        <time>2020-07-16T12:14:18+02:00</time>
      </trkpt>
      <trkpt lat="47.04585" lon="6.24052">
        <ele>363</ele>
        <time>2020-07-16T12:14:23+02:00</time>
      </trkpt>
      <trkpt lat="47.04629" lon="6.23971">
        <ele>365</ele>
        <time>2020-07-16T12:14:28+02:00</time>
      </trkpt>
      <trkpt lat="47.04597" lon="6.23932">
        <ele>358</ele>
        <time>2020-07-16T12:14:33+02:00</time>
      </trkpt>
      <trkpt lat="47.04626" lon="6.23829">
        <ele>358</ele>
        <time>2020-07-16T12:14:38+02:00</time>
      </trkpt>
      <trkpt lat="47.04647" lon="6.23743">
        <ele>359</ele>
        <time>2020-07-16T12:14:43+02:00</time>
      </trkpt>
      <trkpt lat="47.0469" lon="6.23671">
        <ele>358</ele>
        <time>2020-07-16T12:14:48+02:00</time>
      </trkpt>
      <trkpt lat="47.04731" lon="6.23632">
        <ele>359</ele>
        <time>2020-07-16T12:14:53+02:00</time>
      </trkpt>
      <trkpt lat="47.04793" lon="6.23615">
        <ele>371</ele>
        <time>2020-07-16T12:14:58+02:00</time>
      </trkpt>
      <trkpt lat="47.04848" lon="6.23649">
        <ele>366</ele>
        <time>2020-07-16T12:15:03+02:00</time>
      </trkpt>
      <trkpt lat="47.04901" lon="6.23645">
        <ele>365</ele>
        <time>2020-07-16T12:15:08+02:00</time>
      </trkpt>
      <trkpt lat="47.04933" lon="6.2358">
        <ele>368</ele>
        <time>2020-07-16T12:15:13+02:00</time>
      </trkpt>
      <trkpt lat="47.04924" lon="6.23477">
        <ele>370</ele>
        <time>2020-07-16T12:15:18+02:00</time>
      </trkpt>
      <trkpt lat="47.04945" lon="6.23396">
        <ele>376</ele>
        <time>2020-07-16T12:15:23+02:00</time>
      </trkpt>
      <trkpt lat="47.04974" lon="6.23331">
        <ele>382</ele>
        <time>2020-07-16T12:15:28+02:00</time>
      </trkpt>
      <trkpt lat="47.05018" lon="6.23237">
        <ele>388</ele>
        <time>2020-07-16T12:15:33+02:00</time>
      </trkpt>
      <trkpt lat="47.05056" lon="6.23164">
        <ele>389</ele>
        <time>2020-07-16T12:15:38+02:00</time>
      </trkpt>
      <trkpt lat="47.05088" lon="6.231">
        <ele>391</ele>
        <time>2020-07-16T12:15:43+02:00</time>
      </trkpt>
      <trkpt lat="47.05129" lon="6.23001">
        <ele>406</ele>
        <time>2020-07-16T12:15:48+02:00</time>
      </trkpt>
      <trkpt lat="47.0522" lon="6.2295">
        <ele>415</ele>
        <time>2020-07-16T12:15:53+02:00</time>
      </trkpt>
      <trkpt lat="47.05255" lon="6.22889">
        <ele>417</ele>
        <time>2020-07-16T12:15:58+02:00</time>
      </trkpt>
      <trkpt lat="47.05264" lon="6.22782">
        <ele>428</ele>
        <time>2020-07-16T12:16:03+02:00</time>
      </trkpt>
      <trkpt lat="47.05328" lon="6.22714">
        <ele>426</ele>
        <time>2020-07-16T12:16:08+02:00</time>
      </trkpt>
      <trkpt lat="47.05383" lon="6.22666">
        <ele>425</ele>
        <time>2020-07-16T12:16:13+02:00</time>
      </trkpt>
      <trkpt lat="47.05433" lon="6.22572">
        <ele>430</ele>
        <time>2020-07-16T12:16:18+02:00</time>
      </trkpt>
      <trkpt lat="47.05474" lon="6.22508">
        <ele>433</ele>
        <time>2020-07-16T12:16:23+02:00</time>
      </trkpt>
      <trkpt lat="47.05562" lon="6.22447">
        <ele>428</ele>
        <time>2020-07-16T12:16:28+02:00</time>
      </trkpt>
      <trkpt lat="47.05688" lon="6.22327">
        <ele>414</ele>
        <time>2020-07-16T12:16:33+02:00</time>
      </trkpt>
      <trkpt lat="47.05761" lon="6.22259">
        <ele>405</ele>
        <time>2020-07-16T12:16:38+02:00</time>
      </trkpt>
      <trkpt lat="47.05822" lon="6.22229">
        <ele>401</ele>
        <time>2020-07-16T12:16:43+02:00</time>
      </trkpt>
      <trkpt lat="47.05907" lon="6.2219">
        <ele>400</ele>
        <time>2020-07-16T12:16:48+02:00</time>
      </trkpt>
      <trkpt lat="47.05968" lon="6.22121">
        <ele>401</ele>
        <time>2020-07-16T12:16:53+02:00</time>
      </trkpt>
      <trkpt lat="47.06044" lon="6.22057">
        <ele>392</ele>
        <time>2020-07-16T12:16:58+02:00</time>
      </trkpt>
      <trkpt lat="47.06088" lon="6.22014">
        <ele>388</ele>
        <time>2020-07-16T12:17:03+02:00</time>
      </trkpt>
      <trkpt lat="47.06126" lon="6.21988">
        <ele>383</ele>
        <time>2020-07-16T12:17:08+02:00</time>
      </trkpt>
      <trkpt lat="47.06149" lon="6.22023">
        <ele>374</ele>
        <time>2020-07-16T12:17:13+02:00</time>
      </trkpt>
      <trkpt lat="47.06176" lon="6.22023">
        <ele>370</ele>
        <time>2020-07-16T12:17:18+02:00</time>
      </trkpt>
      <trkpt lat="47.06193" lon="6.21984">
        <ele>370</ele>
        <time>2020-07-16T12:17:23+02:00</time>
      </trkpt>
      <trkpt lat="47.06211" lon="6.21915">
        <ele>373</ele>
        <time>2020-07-16T12:17:28+02:00</time>
      </trkpt>
      <trkpt lat="47.06249" lon="6.21877">
        <ele>369</ele>
        <time>2020-07-16T12:17:33+02:00</time>
      </trkpt>
      <trkpt lat="47.06263" lon="6.21847">
        <ele>369</ele>
        <time>2020-07-16T12:17:38+02:00</time>
      </trkpt>
      <trkpt lat="47.06269" lon="6.21735">
        <ele>366</ele>
        <time>2020-07-16T12:17:43+02:00</time>
      </trkpt>
      <trkpt lat="47.06266" lon="6.21658">
        <ele>366</ele>
        <time>2020-07-16T12:17:48+02:00</time>
      </trkpt>
      <trkpt lat="47.06278" lon="6.21598">
        <ele>364</ele>
        <time>2020-07-16T12:17:53+02:00</time>
      </trkpt>
      <trkpt lat="47.06299" lon="6.21538">
        <ele>363</ele>
        <time>2020-07-16T12:17:58+02:00</time>
      </trkpt>
      <trkpt lat="47.06307" lon="6.21478">
        <ele>364</ele>
        <time>2020-07-16T12:18:03+02:00</time>
      </trkpt>
      <trkpt lat="47.0631" lon="6.21443">
        <ele>365</ele>
        <time>2020-07-16T12:18:08+02:00</time>
      </trkpt>
      <trkpt lat="47.06319" lon="6.21379">
        <ele>366</ele>
        <time>2020-07-16T12:18:13+02:00</time>
      </trkpt>
      <trkpt lat="47.06337" lon="6.21349">
        <ele>364</ele>
        <time>2020-07-16T12:18:18+02:00</time>
      </trkpt>
      <trkpt lat="47.0634" lon="6.21293">
        <ele>365</ele>
        <time>2020-07-16T12:18:23+02:00</time>
      </trkpt>
      <trkpt lat="47.06334" lon="6.21186">
        <ele>370</ele>
        <time>2020-07-16T12:18:28+02:00</time>
      </trkpt>
      <trkpt lat="47.0634" lon="6.21027">
        <ele>380</ele>
        <time>2020-07-16T12:18:33+02:00</time>
      </trkpt>
      <trkpt lat="47.06345" lon="6.20885">
        <ele>394</ele>
        <time>2020-07-16T12:18:38+02:00</time>
      </trkpt>
      <trkpt lat="47.06375" lon="6.20752">
        <ele>400</ele>
        <time>2020-07-16T12:18:43+02:00</time>
      </trkpt>
      <trkpt lat="47.06383" lon="6.20675">
        <ele>411</ele>
        <time>2020-07-16T12:18:48+02:00</time>
      </trkpt>
      <trkpt lat="47.06407" lon="6.20576">
        <ele>420</ele>
        <time>2020-07-16T12:18:53+02:00</time>
      </trkpt>
      <trkpt lat="47.06413" lon="6.20512">
        <ele>430</ele>
        <time>2020-07-16T12:18:58+02:00</time>
      </trkpt>
      <trkpt lat="47.0643" lon="6.20456">
        <ele>430</ele>
        <time>2020-07-16T12:19:03+02:00</time>
      </trkpt>
      <trkpt lat="47.06416" lon="6.20383">
        <ele>441</ele>
        <time>2020-07-16T12:19:08+02:00</time>
      </trkpt>
      <trkpt lat="47.06389" lon="6.20302">
        <ele>445</ele>
        <time>2020-07-16T12:19:13+02:00</time>
      </trkpt>
      <trkpt lat="47.06372" lon="6.20272">
        <ele>448</ele>
        <time>2020-07-16T12:19:18+02:00</time>
      </trkpt>
      <trkpt lat="47.06334" lon="6.2028">
        <ele>449</ele>
        <time>2020-07-16T12:19:23+02:00</time>
      </trkpt>
      <trkpt lat="47.06313" lon="6.20306">
        <ele>456</ele>
        <time>2020-07-16T12:19:28+02:00</time>
      </trkpt>
      <trkpt lat="47.06261" lon="6.20306">
        <ele>466</ele>
        <time>2020-07-16T12:19:33+02:00</time>
      </trkpt>
      <trkpt lat="47.06237" lon="6.20297">
        <ele>468</ele>
        <time>2020-07-16T12:19:38+02:00</time>
      </trkpt>
      <trkpt lat="47.0619" lon="6.20293">
        <ele>474</ele>
        <time>2020-07-16T12:19:43+02:00</time>
      </trkpt>
      <trkpt lat="47.06161" lon="6.20297">
        <ele>480</ele>
        <time>2020-07-16T12:19:48+02:00</time>
      </trkpt>
      <trkpt lat="47.06205" lon="6.2034">
        <ele>488</ele>
        <time>2020-07-16T12:19:53+02:00</time>
      </trkpt>
      <trkpt lat="47.06237" lon="6.20375">
        <ele>490</ele>
        <time>2020-07-16T12:19:58+02:00</time>
      </trkpt>
      <trkpt lat="47.06252" lon="6.20426">
        <ele>495</ele>
        <time>2020-07-16T12:20:03+02:00</time>
      </trkpt>
      <trkpt lat="47.0624" lon="6.20465">
        <ele>502</ele>
        <time>2020-07-16T12:20:08+02:00</time>
      </trkpt>
      <trkpt lat="47.06199" lon="6.2043">
        <ele>511</ele>
        <time>2020-07-16T12:20:13+02:00</time>
      </trkpt>
      <trkpt lat="47.06161" lon="6.20413">
        <ele>517</ele>
        <time>2020-07-16T12:20:18+02:00</time>
      </trkpt>
      <trkpt lat="47.06111" lon="6.20413">
        <ele>519</ele>
        <time>2020-07-16T12:20:23+02:00</time>
      </trkpt>
      <trkpt lat="47.06073" lon="6.20435">
        <ele>528</ele>
        <time>2020-07-16T12:20:28+02:00</time>
      </trkpt>
      <trkpt lat="47.06018" lon="6.2046">
        <ele>538</ele>
        <time>2020-07-16T12:20:33+02:00</time>
      </trkpt>
      <trkpt lat="47.0605" lon="6.20533">
        <ele>550</ele>
        <time>2020-07-16T12:20:38+02:00</time>
      </trkpt>
      <trkpt lat="47.06073" lon="6.20585">
        <ele>553</ele>
        <time>2020-07-16T12:20:43+02:00</time>
      </trkpt>
      <trkpt lat="47.06094" lon="6.20675">
        <ele>555</ele>
        <time>2020-07-16T12:20:48+02:00</time>
      </trkpt>
      <trkpt lat="47.06068" lon="6.20791">
        <ele>564</ele>
        <time>2020-07-16T12:20:53+02:00</time>
      </trkpt>
      <trkpt lat="47.0603" lon="6.20907">
        <ele>574</ele>
        <time>2020-07-16T12:20:58+02:00</time>
      </trkpt>
      <trkpt lat="47.0598" lon="6.21057">
        <ele>582</ele>
        <time>2020-07-16T12:21:03+02:00</time>
      </trkpt>
      <trkpt lat="47.05919" lon="6.21233">
        <ele>589</ele>
        <time>2020-07-16T12:21:08+02:00</time>
      </trkpt>
      <trkpt lat="47.05866" lon="6.21392">
        <ele>590</ele>
        <time>2020-07-16T12:21:13+02:00</time>
      </trkpt>
      <trkpt lat="47.05843" lon="6.21555">
        <ele>597</ele>
        <time>2020-07-16T12:21:18+02:00</time>
      </trkpt>
      <trkpt lat="47.05781" lon="6.21684">
        <ele>611</ele>
        <time>2020-07-16T12:21:23+02:00</time>
      </trkpt>
      <trkpt lat="47.05743" lon="6.21731">
        <ele>612</ele>
        <time>2020-07-16T12:21:28+02:00</time>
      </trkpt>
      <trkpt lat="47.05702" lon="6.21761">
        <ele>610</ele>
        <time>2020-07-16T12:21:33+02:00</time>
      </trkpt>
      <trkpt lat="47.05667" lon="6.21795">
        <ele>601</ele>
        <time>2020-07-16T12:21:38+02:00</time>
      </trkpt>
      <trkpt lat="47.05594" lon="6.21821">
        <ele>606</ele>
        <time>2020-07-16T12:21:43+02:00</time>
      </trkpt>
      <trkpt lat="47.05518" lon="6.21877">
        <ele>603</ele>
        <time>2020-07-16T12:21:48+02:00</time>
      </trkpt>
      <trkpt lat="47.05468" lon="6.21915">
        <ele>607</ele>
        <time>2020-07-16T12:21:53+02:00</time>
      </trkpt>
      <trkpt lat="47.05413" lon="6.21997">
        <ele>600</ele>
        <time>2020-07-16T12:21:58+02:00</time>
      </trkpt>
      <trkpt lat="47.05354" lon="6.22074">
        <ele>611</ele>
        <time>2020-07-16T12:22:03+02:00</time>
      </trkpt>
      <trkpt lat="47.05313" lon="6.22168">
        <ele>607</ele>
        <time>2020-07-16T12:22:08+02:00</time>
      </trkpt>
      <trkpt lat="47.05246" lon="6.22284">
        <ele>613</ele>
        <time>2020-07-16T12:22:13+02:00</time>
      </trkpt>
      <trkpt lat="47.05185" lon="6.22426">
        <ele>610</ele>
        <time>2020-07-16T12:22:18+02:00</time>
      </trkpt>
      <trkpt lat="47.05132" lon="6.22533">
        <ele>604</ele>
        <time>2020-07-16T12:22:23+02:00</time>
      </trkpt>
      <trkpt lat="47.05044" lon="6.22658">
        <ele>585</ele>
        <time>2020-07-16T12:22:28+02:00</time>
      </trkpt>
      <trkpt lat="47.04977" lon="6.22774">
        <ele>567</ele>
        <time>2020-07-16T12:22:33+02:00</time>
      </trkpt>
      <trkpt lat="47.04892" lon="6.22924">
        <ele>560</ele>
        <time>2020-07-16T12:22:38+02:00</time>
      </trkpt>
      <trkpt lat="47.04834" lon="6.23022">
        <ele>559</ele>
        <time>2020-07-16T12:22:43+02:00</time>
      </trkpt>
      <trkpt lat="47.04787" lon="6.23117">
        <ele>549</ele>
        <time>2020-07-16T12:22:48+02:00</time>
      </trkpt>
      <trkpt lat="47.04699" lon="6.23186">
        <ele>536</ele>
        <time>2020-07-16T12:22:53+02:00</time>
      </trkpt>
      <trkpt lat="47.04576" lon="6.23203">
        <ele>516</ele>
        <time>2020-07-16T12:22:58+02:00</time>
      </trkpt>
      <trkpt lat="47.04515" lon="6.23198">
        <ele>517</ele>
        <time>2020-07-16T12:23:03+02:00</time>
      </trkpt>
      <trkpt lat="47.04462" lon="6.23224">
        <ele>510</ele>
        <time>2020-07-16T12:23:08+02:00</time>
      </trkpt>
      <trkpt lat="47.04419" lon="6.23254">
        <ele>499</ele>
        <time>2020-07-16T12:23:13+02:00</time>
      </trkpt>
      <trkpt lat="47.04357" lon="6.23306">
        <ele>490</ele>
        <time>2020-07-16T12:23:18+02:00</time>
      </trkpt>
      <trkpt lat="47.0431" lon="6.23387">
        <ele>479</ele>
        <time>2020-07-16T12:23:23+02:00</time>
      </trkpt>
      <trkpt lat="47.04243" lon="6.2349">
        <ele>471</ele>
        <time>2020-07-16T12:23:28+02:00</time>
      </trkpt>
      <trkpt lat="47.04167" lon="6.23529">
        <ele>465</ele>
        <time>2020-07-16T12:23:33+02:00</time>
      </trkpt>
      <trkpt lat="47.04109" lon="6.23563">
        <ele>447</ele>
        <time>2020-07-16T12:23:38+02:00</time>
      </trkpt>
      <trkpt lat="47.04053" lon="6.23533">
        <ele>453</ele>
        <time>2020-07-16T12:23:43+02:00</time>
      </trkpt>
      <trkpt lat="47.03989" lon="6.23529">
        <ele>449</ele>
        <time>2020-07-16T12:23:48+02:00</time>
      </trkpt>
      <trkpt lat="47.03907" lon="6.23568">
        <ele>446</ele>
        <time>2020-07-16T12:23:53+02:00</time>
      </trkpt>
      <trkpt lat="47.03828" lon="6.23606">
        <ele>463</ele>
        <time>2020-07-16T12:23:58+02:00</time>
      </trkpt>
      <trkpt lat="47.0379" lon="6.23675">
        <ele>456</ele>
        <time>2020-07-16T12:24:03+02:00</time>
      </trkpt>
      <trkpt lat="47.03758" lon="6.23765">
        <ele>453</ele>
        <time>2020-07-16T12:24:08+02:00</time>
      </trkpt>
      <trkpt lat="47.03746" lon="6.23846">
        <ele>448</ele>
        <time>2020-07-16T12:24:13+02:00</time>
      </trkpt>
      <trkpt lat="47.03711" lon="6.23868">
        <ele>462</ele>
        <time>2020-07-16T12:24:18+02:00</time>
      </trkpt>
      <trkpt lat="47.03696" lon="6.23902">
        <ele>466</ele>
        <time>2020-07-16T12:24:23+02:00</time>
      </trkpt>
      <trkpt lat="47.03749" lon="6.23941">
        <ele>463</ele>
        <time>2020-07-16T12:24:28+02:00</time>
      </trkpt>
      <trkpt lat="47.03819" lon="6.23984">
        <ele>472</ele>
        <time>2020-07-16T12:24:33+02:00</time>
      </trkpt>
      <trkpt lat="47.03892" lon="6.2401">
        <ele>475</ele>
        <time>2020-07-16T12:24:38+02:00</time>
      </trkpt>
      <trkpt lat="47.0398" lon="6.24061">
        <ele>486</ele>
        <time>2020-07-16T12:24:43+02:00</time>
      </trkpt>
      <trkpt lat="47.04032" lon="6.24087">
        <ele>485</ele>
        <time>2020-07-16T12:24:48+02:00</time>
      </trkpt>
      <trkpt lat="47.04076" lon="6.24121">
        <ele>489</ele>
        <time>2020-07-16T12:24:53+02:00</time>
      </trkpt>
      <trkpt lat="47.04111" lon="6.24147">
        <ele>491</ele>
        <time>2020-07-16T12:24:58+02:00</time>
      </trkpt>
      <trkpt lat="47.04158" lon="6.24151">
        <ele>478</ele>
        <time>2020-07-16T12:25:03+02:00</time>
      </trkpt>
      <trkpt lat="47.0419" lon="6.24198">
        <ele>468</ele>
        <time>2020-07-16T12:25:08+02:00</time>
      </trkpt>
      <trkpt lat="47.04193" lon="6.24288">
        <ele>458</ele>
        <time>2020-07-16T12:25:13+02:00</time>
      </trkpt>
      <trkpt lat="47.04208" lon="6.244">
        <ele>444</ele>
        <time>2020-07-16T12:25:18+02:00</time>
      </trkpt>
      <trkpt lat="47.04258" lon="6.24503">
        <ele>421</ele>
        <time>2020-07-16T12:25:23+02:00</time>
      </trkpt>
      <trkpt lat="47.04281" lon="6.24585">
        <ele>415</ele>
        <time>2020-07-16T12:25:28+02:00</time>
      </trkpt>
      <trkpt lat="47.04313" lon="6.24658">
        <ele>405</ele>
        <time>2020-07-16T12:25:33+02:00</time>
      </trkpt>
      <trkpt lat="47.04331" lon="6.24718">
        <ele>405</ele>
        <time>2020-07-16T12:25:38+02:00</time>
      </trkpt>
      <trkpt lat="47.0434" lon="6.24773">
        <ele>404</ele>
        <time>2020-07-16T12:25:43+02:00</time>
      </trkpt>
      <trkpt lat="47.0434" lon="6.24812">
        <ele>401</ele>
        <time>2020-07-16T12:25:48+02:00</time>
      </trkpt>
      <trkpt lat="47.04331" lon="6.24872">
        <ele>397</ele>
        <time>2020-07-16T12:25:53+02:00</time>
      </trkpt>
      <trkpt lat="47.04331" lon="6.24919">
        <ele>385</ele>
        <time>2020-07-16T12:25:58+02:00</time>
      </trkpt>
      <trkpt lat="47.04331" lon="6.24949">
        <ele>374</ele>
        <time>2020-07-16T12:26:03+02:00</time>
      </trkpt>
      <trkpt lat="47.04345" lon="6.24975">
        <ele>364</ele>
        <time>2020-07-16T12:26:08+02:00</time>
      </trkpt>
      <trkpt lat="47.04354" lon="6.24992">
        <ele>364</ele>
        <time>2020-07-16T12:26:13+02:00</time>
      </trkpt>
      <trkpt lat="47.04363" lon="6.25005">
        <ele>366</ele>
        <time>2020-07-16T12:26:18+02:00</time>
      </trkpt>
      <trkpt lat="47.04386" lon="6.24975">
        <ele>366</ele>
        <time>2020-07-16T12:26:23+02:00</time>
      </trkpt>
      <trkpt lat="47.04407" lon="6.24979">
        <ele>371</ele>
        <time>2020-07-16T12:26:28+02:00</time>
      </trkpt>
      <trkpt lat="47.04427" lon="6.24958">
        <ele>373</ele>
        <time>2020-07-16T12:26:33+02:00</time>
      </trkpt>
      <trkpt lat="47.04442" lon="6.24906">
        <ele>373</ele>
        <time>2020-07-16T12:26:38+02:00</time>
      </trkpt>
      <trkpt lat="47.04459" lon="6.24821">
        <ele>375</ele>
        <time>2020-07-16T12:26:43+02:00</time>
      </trkpt>
      <trkpt lat="47.04471" lon="6.24782">
        <ele>380</ele>
        <time>2020-07-16T12:26:48+02:00</time>
      </trkpt>
      <trkpt lat="47.04483" lon="6.24778">
        <ele>384</ele>
        <time>2020-07-16T12:26:53+02:00</time>
      </trkpt>
      <trkpt lat="47.04492" lon="6.24769">
        <ele>386</ele>
        <time>2020-07-16T12:26:58+02:00</time>
      </trkpt>
    </trkseg>
  </trk>
</gpx>